Time;durP1;ratioP1;P1;durP2;ratioP2;P2;SDS_P1;SDS_P2;PMS_P1;PMS_P2;Temp;Humidity;BMP_temperature;BMP_pressure;BME280_temperature;BME280_humidity;BME280_pressure;Samples;Min_cycle;Max_cycle;Signal;HPM_P1;HPM_P2
2022/02/10 00:21:53;;;;;;;5.40;3.35;;;;;;;3.44;75.73;101137.31;5053166;28;20480;-80
2022/02/10 00:35:08;;;;;;;4.25;3.53;;;;;;;3.28;75.51;101116.03;5039068;28;20441;-80
2022/02/10 00:37:50;;;;;;;4.47;3.20;;;;;;;3.27;75.20;101123.25;5031667;28;20874;-80
2022/02/10 00:40:19;;;;;;;5.00;3.70;;;;;;;3.27;75.10;101119.72;5035737;28;20440;-80
2022/02/10 00:42:45;;;;;;;4.07;3.40;;;;;;;3.26;74.83;101120.75;5042479;28;20464;-80
2022/02/10 00:45:11;;;;;;;4.33;3.50;;;;;;;3.23;74.83;101121.13;5032917;28;20399;-80
2022/02/10 00:47:51;;;;;;;5.35;4.00;;;;;;;3.19;75.20;101111.78;5053100;28;20516;-80
2022/02/10 00:50:17;;;;;;;4.60;4.20;;;;;;;3.14;75.25;101123.84;5033344;28;20905;-80
2022/02/10 00:52:44;;;;;;;4.30;3.90;;;;;;;3.13;74.97;101122.19;5034184;28;20391;-80
2022/02/10 00:55:10;;;;;;;5.88;3.85;;;;;;;3.16;75.13;101121.00;5045161;28;20486;-80
2022/02/10 00:57:35;;;;;;;5.47;3.75;;;;;;;3.18;75.20;101129.69;5032311;28;20387;-80
2022/02/10 01:00:19;;;;;;;6.67;3.73;;;;;;;3.19;75.11;101126.00;5032480;28;20834;-81
2022/02/10 01:13:50;;;;;;;5.75;4.28;;;;;;;3.15;75.73;101116.66;5051063;28;20397;-80
2022/02/10 01:24:35;;;;;;;4.63;3.55;;;;;;;3.05;75.42;101103.53;5048175;28;20370;-80
2022/02/10 01:29:46;;;;;;;6.95;3.85;;;;;;;3.02;75.62;101108.41;5034547;28;20422;-80
2022/02/10 01:32:12;;;;;;;7.25;4.45;;;;;;;3.03;75.64;101099.38;5034986;28;20472;-80
2022/02/10 01:34:47;;;;;;;5.82;4.30;;;;;;;3.02;75.64;101100.38;5050316;28;20868;-80
2022/02/10 01:37:13;;;;;;;5.68;4.25;;;;;;;3.03;75.83;101094.00;5036656;28;20410;-80
2022/02/10 01:39:45;;;;;;;6.13;4.32;;;;;;;3.04;75.89;101098.34;5032907;28;20458;-80
2022/02/10 01:57:46;;;;;;;10.73;5.82;;;;;;;3.07;76.06;101098.81;5049088;28;20413;-80
2022/02/10 02:03:18;;;;;;;10.70;6.15;;;;;;;3.25;76.62;101090.44;5030993;28;20778;-80
2022/02/10 02:03:55;;;;;;;10.68;6.55;;;;;;;3.25;76.83;101087.78;5036560;28;20361;-80
2022/02/10 02:06:27;;;;;;;10.15;6.38;;;;;;;3.22;76.91;101088.16;5042843;28;20387;-80
2022/02/10 02:08:53;;;;;;;9.18;6.18;;;;;;;3.21;76.93;101081.13;5042430;28;20499;-80
2022/02/10 02:11:27;;;;;;;7.82;6.07;;;;;;;3.21;77.04;101067.72;5043824;28;20407;-80
2022/02/10 02:13:53;;;;;;;11.00;7.10;;;;;;;3.22;76.76;101071.22;5033323;28;20457;-81
2022/02/10 02:16:18;;;;;;;14.63;7.90;;;;;;;3.22;76.62;101071.22;5041507;28;20403;-80
2022/02/10 02:18:43;;;;;;;14.23;8.87;;;;;;;3.22;76.90;101071.22;5029616;28;20417;-80
2022/02/10 02:21:09;;;;;;;13.40;9.20;;;;;;;3.24;77.61;101062.00;5038394;28;20399;-80
2022/02/10 02:23:34;;;;;;;17.42;9.60;;;;;;;3.22;78.03;101066.72;5044923;28;20441;-80
2022/02/10 02:26:06;;;;;;;13.57;8.67;;;;;;;3.13;78.63;101057.91;5035356;28;20884;-80
2022/02/10 02:28:41;;;;;;;15.82;9.32;;;;;;;3.10;78.42;101052.91;5041667;28;20464;-80
2022/02/10 02:31:11;;;;;;;15.40;8.48;;;;;;;3.19;78.51;101053.69;5048117;28;20387;-80
2022/02/10 03:08:49;;;;;;;10.90;7.18;;;;;;;3.35;78.27;101021.38;5040511;28;20492;-80
2022/02/10 03:11:16;;;;;;;11.07;7.20;;;;;;;3.32;77.84;101024.44;5045730;28;20449;-80
2022/02/10 03:13:50;;;;;;;9.65;6.40;;;;;;;3.30;78.42;101026.44;5034891;28;20391;-80
2022/02/10 03:16:49;;;;;;;10.32;6.97;;;;;;;3.29;78.73;101034.66;5034275;28;20534;-80
2022/02/10 03:21:51;;;;;;;10.60;6.10;;;;;;;3.26;78.77;101038.53;5040245;28;20403;-80
2022/02/10 04:02:45;;;;;;;12.57;7.27;;;;;;;3.13;77.84;101032.97;5044497;28;20399;-80
2022/02/10 04:13:18;;;;;;;8.33;6.23;;;;;;;3.17;77.36;101030.75;5052378;28;20405;-80
2022/02/10 04:58:34;;;;;;;6.97;4.93;;;;;;;3.10;78.04;100995.84;5046175;28;20396;-80
2022/02/10 05:01:12;;;;;;;9.30;5.10;;;;;;;3.10;78.16;100994.00;5052430;28;20385;-80
2022/02/10 05:20:13;;;;;;;7.57;5.50;;;;;;;3.07;78.11;100990.84;5032221;28;20821;-80
2022/02/10 05:22:47;;;;;;;8.18;5.57;;;;;;;3.06;78.26;100981.19;5043706;28;20886;-80
2022/02/10 05:33:41;;;;;;;9.38;6.05;;;;;;;3.11;78.63;100966.22;5037964;28;20418;-79
2022/02/10 05:36:09;;;;;;;8.15;5.22;;;;;;;3.14;78.56;100963.19;5036334;28;20897;-80
2022/02/10 05:38:42;;;;;;;9.23;5.72;;;;;;;3.18;78.40;100958.28;5049642;28;20431;-80
2022/02/10 05:56:21;;;;;;;16.53;9.27;;;;;;;3.08;78.22;100958.56;5044158;28;21201;-80
2022/02/10 06:02:10;;;;;;;23.83;13.67;;;;;;;3.07;78.72;100964.09;5032531;28;20405;-81
2022/02/10 06:48:32;;;;;;;22.70;12.70;;;;;;;2.92;78.94;100972.13;5044320;28;20464;-79
2022/02/10 06:53:36;;;;;;;23.58;12.50;;;;;;;2.89;79.18;100975.16;5039402;28;20823;-80
2022/02/10 07:05:22;;;;;;;20.08;11.98;;;;;;;2.97;78.92;100980.41;5040479;28;20412;-79
2022/02/10 07:10:11;;;;;;;18.83;11.20;;;;;;;2.96;79.00;100983.28;5045439;28;20478;-78
2022/02/10 07:48:32;;;;;;;18.73;11.47;;;;;;;3.94;77.19;101024.84;5039919;28;20941;-79
2022/02/10 07:53:53;;;;;;;15.93;9.10;;;;;;;4.42;76.38;101028.66;5035029;28;20406;-79
2022/02/10 07:56:40;;;;;;;15.27;9.23;;;;;;;4.50;76.67;101023.19;5040429;28;20440;-79
2022/02/10 07:59:32;;;;;;;14.90;7.78;;;;;;;4.60;76.25;101020.19;5038107;28;20446;-79
2022/02/10 08:56:31;;;;;;;8.43;4.10;;;;;;;6.93;71.86;101064.00;5052692;28;20388;-80
2022/02/10 09:04:23;;;;;;;11.63;5.30;;;;;;;7.08;72.00;101065.44;5047289;28;20401;-80
2022/02/10 09:17:22;;;;;;;7.45;4.78;;;;;;;7.47;70.96;101080.78;5041081;28;20480;-79
2022/02/10 09:20:06;;;;;;;8.80;4.40;;;;;;;7.62;70.40;101080.53;5036785;28;20422;-80
2022/02/10 10:00:28;;;;;;;13.15;6.28;;;;;;;8.50;68.73;101111.41;5042775;28;20414;-80
2022/02/10 10:03:10;;;;;;;12.20;6.65;;;;;;;8.53;68.87;101102.91;5031536;28;20395;-80
2022/02/10 10:05:44;;;;;;;10.25;6.60;;;;;;;8.47;69.28;101109.97;5030542;28;20395;-81
2022/02/10 10:08:22;;;;;;;8.95;6.85;;;;;;;8.43;69.42;101113.34;5032397;28;20920;-79
2022/02/10 10:11:28;;;;;;;9.57;5.88;;;;;;;8.49;69.08;101123.28;5031185;28;20410;-80
2022/02/10 10:13:57;;;;;;;9.32;6.05;;;;;;;8.45;69.31;101130.16;5038065;28;20392;-79
2022/02/10 10:16:56;;;;;;;11.45;7.18;;;;;;;8.49;69.00;101128.69;5033603;28;20398;-80
2022/02/10 10:19:55;;;;;;;10.43;6.53;;;;;;;8.54;69.48;101135.09;5035318;28;20750;-79
2022/02/10 10:56:17;;;;;;;11.40;7.80;;;;;;;8.22;69.05;101133.31;5035119;28;20395;-79
2022/02/10 10:59:08;;;;;;;9.35;7.10;;;;;;;8.17;69.81;101125.00;5038936;28;20413;-81
2022/02/10 11:37:32;;;;;;;8.80;5.85;;;;;;;7.94;70.12;101108.47;5034233;28;20501;-79
2022/02/10 11:40:20;;;;;;;9.88;5.88;;;;;;;7.90;70.49;101093.75;5049179;28;20435;-79
2022/02/10 11:43:26;;;;;;;7.15;5.68;;;;;;;7.91;70.92;101092.69;5036957;28;20531;-78
2022/02/10 11:46:18;;;;;;;8.60;5.90;;;;;;;7.88;70.27;101091.28;5033079;28;20870;-79
2022/02/10 12:01:36;;;;;;;7.53;5.73;;;;;;;7.84;71.23;101092.72;5046259;28;20765;-80
2022/02/10 12:30:01;;;;;;;8.63;6.47;;;;;;;7.88;69.51;101087.72;5039880;28;20803;-78
2022/02/10 12:33:48;;;;;;;9.25;6.07;;;;;;;7.90;69.14;101094.59;5039818;28;20384;-78
2022/02/10 13:34:05;;;;;;;10.30;6.93;;;;;;;8.05;68.26;101067.34;5052046;28;20393;-78
2022/02/10 14:17:15;;;;;;;7.18;5.80;;;;;;;8.18;65.43;101069.97;5042304;28;20474;-78
2022/02/10 14:19:58;;;;;;;8.32;5.88;;;;;;;8.08;65.60;101078.53;5044206;28;20830;-78
2022/02/10 14:27:44;;;;;;;9.18;5.95;;;;;;;7.97;66.31;101073.78;5033189;28;20390;-78
2022/02/10 14:30:10;;;;;;;6.87;5.83;;;;;;;7.95;66.55;101078.59;5031535;28;20419;-78
2022/02/10 14:32:41;;;;;;;10.67;6.70;;;;;;;7.98;66.29;101088.13;5041252;28;20756;-77
2022/02/10 14:35:20;;;;;;;9.13;6.03;;;;;;;8.02;65.75;101092.88;5035824;28;20393;-79
2022/02/10 14:40:33;;;;;;;8.07;6.63;;;;;;;7.89;66.86;101092.09;5043501;28;20900;-79
2022/02/10 15:14:01;;;;;;;8.52;6.32;;;;;;;7.61;66.87;101095.88;5037271;28;20439;-77
2022/02/10 15:16:29;;;;;;;9.67;5.77;;;;;;;7.57;67.43;101091.97;5040527;28;20418;-78
2022/02/10 15:20:46;;;;;;;6.85;5.90;;;;;;;7.59;68.07;101092.59;5033292;28;20405;-78
2022/02/10 15:30:14;;;;;;;6.97;5.35;;;;;;;7.49;67.93;101085.94;5047187;28;20462;-78
2022/02/10 16:18:31;;;;;;;6.88;5.25;;;;;;;7.30;69.50;101068.75;5038057;28;20390;-79
2022/02/10 16:21:00;;;;;;;6.57;5.18;;;;;;;7.24;69.55;101058.81;5036153;28;20407;-79
2022/02/10 16:23:31;;;;;;;9.95;6.22;;;;;;;7.22;69.41;101069.78;5042159;28;20855;-79
2022/02/10 16:26:18;;;;;;;7.90;5.63;;;;;;;7.26;69.70;101062.97;5039479;28;20754;-79
2022/02/10 16:28:44;;;;;;;9.02;6.32;;;;;;;7.28;69.33;101060.03;5047046;28;20397;-79
2022/02/10 16:31:12;;;;;;;8.80;6.55;;;;;;;7.27;69.53;101059.22;5043579;28;20400;-79
2022/02/10 16:33:38;;;;;;;7.25;6.20;;;;;;;7.21;69.24;101046.56;5045569;28;20423;-78
2022/02/10 16:36:05;;;;;;;8.07;5.60;;;;;;;7.26;69.44;101043.25;5036628;28;20403;-79
2022/02/10 16:38:32;;;;;;;5.88;5.13;;;;;;;7.24;69.44;101054.22;5035590;28;20417;-79
2022/02/10 16:40:57;;;;;;;7.57;6.73;;;;;;;7.32;68.90;101042.41;5043999;28;20465;-79
2022/02/10 16:43:23;;;;;;;6.77;5.70;;;;;;;7.26;69.34;101040.56;5049141;28;20420;-80
2022/02/10 16:45:48;;;;;;;6.03;5.07;;;;;;;7.31;68.78;101041.56;5045634;28;20393;-79
2022/02/10 16:48:13;;;;;;;8.98;6.65;;;;;;;7.31;68.73;101035.34;5043410;28;20730;-79
2022/02/10 16:50:43;;;;;;;7.27;5.97;;;;;;;7.23;68.81;101036.41;5044620;28;20884;-79
2022/02/10 16:53:11;;;;;;;8.32;5.72;;;;;;;7.28;68.86;101035.78;5046749;28;20468;-79
2022/02/10 16:58:23;;;;;;;6.38;5.72;;;;;;;7.25;68.66;101026.25;5037238;28;20407;-78
2022/02/10 17:25:13;;;;;;;6.20;4.68;;;;;;;7.28;68.57;101014.22;5036981;28;20405;-78
2022/02/10 17:27:42;;;;;;;7.07;4.80;;;;;;;7.32;67.71;101012.75;5044816;28;20413;-78
2022/02/10 17:33:20;;;;;;;7.05;5.13;;;;;;;7.26;68.87;101011.75;5043326;28;20887;-78
2022/02/10 17:36:05;;;;;;;5.10;4.60;;;;;;;7.24;68.36;101008.41;5042734;28;20409;-78
2022/02/10 17:54:22;;;;;;;7.15;5.07;;;;;;;7.20;68.93;101017.97;5039802;28;20403;-79
2022/02/10 17:56:48;;;;;;;5.28;4.68;;;;;;;7.23;68.29;101020.25;5039836;28;20401;-79
2022/02/10 17:59:14;;;;;;;5.25;4.75;;;;;;;7.21;69.11;101021.50;5041933;28;20780;-80
2022/02/10 18:01:42;;;;;;;6.13;5.40;;;;;;;7.19;68.89;101019.00;5037146;28;20416;-81
2022/02/10 18:04:09;;;;;;;6.03;5.40;;;;;;;7.19;68.85;101013.59;5041510;28;20451;-80
2022/02/10 18:06:39;;;;;;;7.07;5.40;;;;;;;7.16;69.64;101007.81;5033972;28;20893;-79
2022/02/10 18:14:28;;;;;;;6.53;5.30;;;;;;;7.03;69.46;101013.22;5042864;28;20401;-80
2022/02/10 18:17:06;;;;;;;6.45;5.53;;;;;;;7.06;68.98;101016.31;5034464;28;20445;-80
2022/02/10 18:19:42;;;;;;;8.00;6.75;;;;;;;7.05;69.48;101011.94;5045051;28;20504;-81
2022/02/10 19:07:06;;;;;;;8.57;6.97;;;;;;;6.49;70.99;100997.22;5041953;28;20900;-79
2022/02/10 19:09:39;;;;;;;13.37;8.20;;;;;;;6.45;70.92;100999.53;5040715;28;20396;-80
2022/02/10 19:12:14;;;;;;;13.73;9.48;;;;;;;6.37;71.43;101002.38;5044626;28;20954;-79
2022/02/10 19:14:40;;;;;;;12.25;8.82;;;;;;;6.31;72.28;101000.53;5036165;28;20452;-80
2022/02/10 19:17:05;;;;;;;9.63;8.55;;;;;;;6.25;72.48;100993.25;5040018;28;20735;-80
2022/02/10 19:19:31;;;;;;;11.00;7.78;;;;;;;6.21;72.92;100992.84;5045636;28;20759;-80
2022/02/10 19:21:56;;;;;;;11.43;8.60;;;;;;;6.26;72.91;101000.28;5036651;28;20392;-80
2022/02/10 19:24:22;;;;;;;10.13;8.10;;;;;;;6.29;72.38;100997.19;5037290;28;20397;-80
2022/02/10 19:26:50;;;;;;;10.13;7.90;;;;;;;6.30;72.78;101006.09;5045624;28;20896;-80
2022/02/10 19:29:17;;;;;;;10.48;7.85;;;;;;;6.24;72.73;101003.19;5046566;28;20401;-80
2022/02/10 19:31:42;;;;;;;17.67;7.82;;;;;;;6.23;72.67;101009.59;5048078;28;20904;-80
2022/02/10 19:34:08;;;;;;;7.90;6.80;;;;;;;6.26;73.41;101011.88;5046221;28;20405;-80
2022/02/10 19:36:34;;;;;;;7.97;7.17;;;;;;;6.32;73.08;101012.13;5050073;28;20401;-80
2022/02/10 19:38:59;;;;;;;10.40;7.67;;;;;;;6.38;73.36;101011.28;5047945;28;20894;-80
2022/02/10 19:41:31;;;;;;;9.80;7.70;;;;;;;6.41;72.71;101000.13;5048248;28;20419;-80
2022/02/10 19:43:56;;;;;;;10.75;7.30;;;;;;;6.46;71.94;100997.63;5043758;28;20893;-80
2022/02/10 19:46:21;;;;;;;8.83;6.70;;;;;;;6.46;71.60;101009.22;5033987;28;20405;-80
2022/02/10 19:48:48;;;;;;;10.15;7.07;;;;;;;6.50;72.27;100997.03;5044831;28;20484;-80
2022/02/10 19:51:13;;;;;;;10.27;7.60;;;;;;;6.49;72.57;101003.44;5038668;28;20395;-80
2022/02/10 19:53:39;;;;;;;9.17;6.67;;;;;;;6.53;72.14;101006.56;5041753;28;20465;-80
2022/02/10 19:56:04;;;;;;;8.33;7.10;;;;;;;6.53;72.43;101003.84;5039594;28;20781;-80
2022/02/10 19:58:30;;;;;;;9.10;7.38;;;;;;;6.58;72.12;101001.41;5039695;28;20800;-80
2022/02/10 20:00:59;;;;;;;10.45;6.88;;;;;;;6.60;72.04;101000.16;5041187;28;20422;-80
2022/02/10 20:03:26;;;;;;;11.18;7.80;;;;;;;6.64;72.07;100997.88;5033739;28;20436;-80
2022/02/10 20:05:52;;;;;;;12.37;8.33;;;;;;;6.66;71.39;100993.09;5036034;28;20403;-80
2022/02/10 20:08:24;;;;;;;12.57;8.37;;;;;;;6.67;71.23;100990.22;5043321;28;20397;-80
2022/02/10 20:10:53;;;;;;;10.63;8.07;;;;;;;6.71;71.16;100985.25;5035704;28;20606;-80
2022/02/10 20:13:28;;;;;;;9.93;6.90;;;;;;;6.74;70.84;100991.03;5036874;28;20406;-80
2022/02/10 20:15:55;;;;;;;9.98;6.15;;;;;;;6.75;70.56;100984.59;5045493;28;20405;-80
2022/02/10 20:18:21;;;;;;;11.02;6.35;;;;;;;6.77;70.89;100985.25;5037096;28;20395;-80
2022/02/10 20:20:53;;;;;;;7.95;6.05;;;;;;;6.79;69.95;100987.72;5037182;28;20415;-80
2022/02/10 20:23:21;;;;;;;8.57;7.15;;;;;;;6.81;70.07;100984.81;5043623;28;20399;-80
2022/02/10 20:25:49;;;;;;;16.77;11.45;;;;;;;6.82;70.47;100973.81;5038618;28;20943;-80
2022/02/10 20:28:16;;;;;;;12.65;7.65;;;;;;;6.81;70.57;100969.50;5041318;28;20420;-80
2022/02/10 20:30:42;;;;;;;7.43;5.75;;;;;;;6.79;70.63;100974.25;5040399;28;20411;-80
2022/02/10 20:33:07;;;;;;;7.03;6.13;;;;;;;6.79;70.46;100977.78;5037038;28;20506;-80
2022/02/10 20:35:38;;;;;;;8.37;6.03;;;;;;;6.79;69.97;100975.06;5044622;28;20401;-80
2022/02/10 20:38:03;;;;;;;8.55;6.95;;;;;;;6.82;70.16;100971.13;5040750;28;20413;-80
2022/02/10 20:40:33;;;;;;;11.25;8.05;;;;;;;6.84;70.40;100977.16;5041106;28;20475;-81
2022/02/10 20:43:04;;;;;;;14.05;9.40;;;;;;;6.84;70.88;100973.63;5044191;28;20424;-80
2022/02/10 20:45:30;;;;;;;13.35;8.27;;;;;;;6.79;70.46;100966.16;5040328;28;20444;-79
2022/02/10 20:47:56;;;;;;;13.88;7.45;;;;;;;6.80;71.23;100965.13;5041980;28;20402;-79
2022/02/10 20:50:21;;;;;;;8.40;6.30;;;;;;;6.78;70.57;100964.53;5045677;28;20397;-78
2022/02/10 20:52:46;;;;;;;10.20;7.17;;;;;;;6.79;71.02;100969.69;5044128;28;20465;-78
2022/02/10 20:55:12;;;;;;;8.63;5.88;;;;;;;6.77;70.71;100966.38;5052313;28;20416;-78
2022/02/10 20:57:37;;;;;;;7.63;5.37;;;;;;;6.76;70.98;100961.19;5050439;28;20409;-78
2022/02/10 21:00:08;;;;;;;6.47;5.67;;;;;;;6.75;70.86;100963.06;5044437;28;20414;-78
2022/02/10 21:02:39;;;;;;;9.73;6.50;;;;;;;6.74;71.14;100965.97;5047429;28;20500;-78
2022/02/10 21:05:20;;;;;;;10.27;5.97;;;;;;;6.81;70.74;100963.28;5047133;28;20432;-79
2022/02/10 21:07:56;;;;;;;7.60;5.78;;;;;;;6.81;71.06;100966.81;5041748;28;20895;-79
2022/02/10 21:10:24;;;;;;;10.48;6.10;;;;;;;6.83;70.41;100953.94;5046566;28;20405;-78
2022/02/10 21:12:49;;;;;;;8.13;5.38;;;;;;;6.83;70.87;100953.94;5046627;28;20404;-78
2022/02/10 21:15:19;;;;;;;9.27;6.22;;;;;;;6.85;70.34;100946.47;5050070;28;20393;-78
2022/02/10 21:17:50;;;;;;;7.32;6.63;;;;;;;6.88;70.48;100950.63;5049119;28;20877;-78
2022/02/10 21:20:15;;;;;;;9.37;7.37;;;;;;;6.90;70.08;100954.78;5050652;28;20425;-79
2022/02/10 21:22:46;;;;;;;7.47;6.40;;;;;;;6.91;70.17;100952.91;5051731;28;20410;-79
2022/02/10 21:25:19;;;;;;;9.95;6.50;;;;;;;6.87;70.69;100947.09;5040700;28;20405;-79
2022/02/10 21:27:47;;;;;;;8.93;6.47;;;;;;;6.90;70.63;100948.53;5049639;28;20397;-79
2022/02/10 21:30:15;;;;;;;8.53;6.90;;;;;;;6.89;70.14;100952.28;5049045;28;20397;-79
2022/02/10 21:32:48;;;;;;;10.10;6.70;;;;;;;6.88;70.14;100947.94;5049009;28;20432;-79
2022/02/10 21:38:12;;;;;;;9.27;6.75;;;;;;;6.90;70.04;100941.31;5045471;28;20444;-78
2022/02/10 22:02:55;;;;;;;8.95;7.32;;;;;;;6.88;70.39;100919.13;5048489;28;20428;-80
2022/02/10 22:05:38;;;;;;;11.00;6.72;;;;;;;6.85;71.17;100916.84;5045126;28;20392;-81
2022/02/10 22:10:18;;;;;;;10.32;7.43;;;;;;;6.84;70.98;100903.59;5046368;28;20413;-81
2022/02/10 22:21:01;;;;;;;11.68;8.98;;;;;;;6.88;70.96;100915.59;5041146;28;20421;-81
2022/02/10 22:23:27;;;;;;;10.10;8.10;;;;;;;6.89;70.54;100912.69;5036488;28;20494;-81
2022/02/10 22:26:07;;;;;;;11.05;7.88;;;;;;;6.87;71.07;100908.56;5047371;28;20417;-81
2022/02/10 22:29:41;;;;;;;10.87;7.10;;;;;;;6.87;71.19;100892.41;5050852;28;20470;-80
2022/02/10 22:34:07;;;;;;;9.20;6.65;;;;;;;6.83;71.26;100907.31;5051100;28;20494;-80
2022/02/10 22:36:35;;;;;;;9.10;6.50;;;;;;;6.79;71.42;100905.03;5044860;28;21001;-80
2022/02/10 22:39:03;;;;;;;9.35;6.80;;;;;;;6.76;70.95;100910.84;5044314;28;20792;-81
2022/02/10 22:41:30;;;;;;;8.25;7.00;;;;;;;6.78;71.34;100914.16;5052218;28;20405;-80
2022/02/10 22:43:55;;;;;;;7.60;6.75;;;;;;;6.83;70.72;100907.31;5045594;28;20424;-80
2022/02/10 22:46:22;;;;;;;8.25;6.85;;;;;;;6.84;71.06;100906.28;5047336;28;20765;-81
2022/02/10 22:48:50;;;;;;;8.90;6.90;;;;;;;6.83;71.10;100907.31;5047391;28;20415;-81
2022/02/10 22:51:18;;;;;;;9.57;6.40;;;;;;;6.85;71.06;100903.38;5048473;28;20772;-81
2022/02/10 22:53:44;;;;;;;11.30;7.30;;;;;;;6.86;71.34;100915.81;5052695;28;20804;-80
2022/02/10 22:56:11;;;;;;;11.53;7.13;;;;;;;6.88;71.28;100912.91;5054533;28;20404;-81
2022/02/10 22:58:39;;;;;;;10.52;7.10;;;;;;;6.84;70.76;100920.59;5042334;28;20879;-81
2022/02/10 23:01:06;;;;;;;8.73;6.88;;;;;;;6.84;71.07;100914.38;5051778;28;20393;-81
2022/02/10 23:03:36;;;;;;;10.27;7.30;;;;;;;6.83;71.15;100915.41;5045829;28;20413;-80
2022/02/10 23:06:02;;;;;;;8.18;6.35;;;;;;;6.83;70.94;100918.09;5040124;28;20891;-80
2022/02/10 23:08:28;;;;;;;9.07;6.87;;;;;;;6.83;70.89;100913.53;5052881;28;20439;-81
2022/02/10 23:10:54;;;;;;;9.53;6.90;;;;;;;6.84;70.62;100909.81;5054621;28;20404;-81
2022/02/10 23:13:23;;;;;;;11.23;7.13;;;;;;;6.82;70.71;100908.38;5054060;28;20458;-81
2022/02/10 23:15:49;;;;;;;8.68;7.47;;;;;;;6.81;71.44;100921.00;5054307;28;20493;-81
2022/02/10 23:18:18;;;;;;;10.05;7.38;;;;;;;6.81;71.66;100912.94;5052838;28;20465;-81
2022/02/10 23:20:44;;;;;;;10.93;8.05;;;;;;;6.69;71.81;100914.56;5052528;28;20466;-81
2022/02/10 23:23:11;;;;;;;10.77;8.48;;;;;;;6.70;72.13;100916.25;5048259;28;21050;-81
2022/02/10 23:25:38;;;;;;;14.60;8.63;;;;;;;6.70;73.41;100930.53;5052699;28;20648;-80
2022/02/10 23:28:13;;;;;;;11.80;8.48;;;;;;;6.67;73.83;100928.25;5054161;28;20459;-80
2022/02/10 23:30:38;;;;;;;9.73;8.00;;;;;;;6.70;73.86;100929.72;5050338;28;20883;-80
2022/02/10 23:33:17;;;;;;;9.13;7.50;;;;;;;6.76;73.62;100928.88;5036056;28;20451;-80
2022/02/10 23:38:34;;;;;;;9.95;7.50;;;;;;;6.78;74.28;100924.91;5041508;28;20428;-80
2022/02/10 23:43:45;;;;;;;10.63;7.07;;;;;;;6.76;74.35;100927.00;5052728;28;20425;-80
2022/02/10 23:46:11;;;;;;;9.82;7.07;;;;;;;6.75;73.98;100927.25;5046296;28;20407;-81
2022/02/10 23:48:36;;;;;;;9.80;6.88;;;;;;;6.75;73.58;100924.53;5052836;28;20401;-80
2022/02/10 23:51:03;;;;;;;9.48;6.93;;;;;;;6.82;73.19;100933.41;5046207;28;20504;-81
2022/02/10 23:53:29;;;;;;;9.83;7.03;;;;;;;6.84;73.15;100923.28;5048644;28;20398;-81
2022/02/10 23:55:55;;;;;;;9.45;6.90;;;;;;;6.78;73.45;100921.44;5048602;28;20888;-81
2022/02/10 23:58:32;;;;;;;11.60;6.28;;;;;;;6.82;72.50;100924.53;5048253;28;20396;-80
